FW0757 Weather Reports


time (UTC)temp
C
wind
direction
speed
KPH
gust
KPH
rain 1hr
cm
rain 24hr
cm
rain mn
cm
humidity
%
barometer
mb
20200229064617 12 0 3.2 3.2 0.00 0.00 0.00 84 1017.7
20200229063616 13 337 3.2 4.8 0.00 0.00 0.00 83 1017.8
20200229062616 13 0.0 0.0 0.00 0.00 0.00 86 1018.0
20200229061616 13 0.0 0.0 0.00 0.00 0.00 86 1018.2
20200229060616 13 270 1.6 3.2 0.00 0.00 0.00 85 1018.1
20200229055616 13 270 1.6 3.2 0.00 0.00 0.00 83 1018.1
20200229054616 13 270 1.6 1.6 0.00 0.00 0.00 85 1018.0
20200229053616 13 0.0 0.0 0.00 0.00 0.00 85 1018.0
20200229052616 13 270 1.6 1.6 0.00 0.00 0.00 85 1018.1
20200229051619 13 270 1.6 1.6 0.00 0.00 0.00 85 1018.0
20200229050620 13 0.0 1.6 0.00 0.00 0.00 85 1017.8
20200229045619 13 270 3.2 3.2 0.00 0.00 0.00 85 1018.2
20200229044622 13 270 4.8 6.4 0.00 0.00 0.00 83 1018.1
20200229043618 14 225 4.8 4.8 0.00 0.00 0.00 81 1017.6
20200229042617 14 202 1.6 3.2 0.00 0.00 0.00 80 1017.3
20200229041619 15 0.0 1.6 0.00 0.00 0.00 78 1017.0
20200229040617 15 202 1.6 3.2 0.00 0.00 0.00 79 1017.0
20200229035618 15 202 1.6 1.6 0.00 0.00 0.00 82 1017.2
20200229034617 15 0.0 0.0 0.00 0.00 0.00 81 1017.1
20200229033620 15 0.0 0.0 0.00 0.00 0.00 80 1016.9
20200229032619 15 112 1.6 3.2 0.00 0.00 0.00 79 1016.7
20200229031617 15 112 1.6 3.2 0.00 0.00 0.00 79 1016.5
20200229030617 16 112 3.2 3.2 0.00 0.00 0.00 79 1016.5
20200229025631 16 247 1.6 3.2 0.00 0.00 0.00 75 1017.0
20200229024618 17 0.0 1.6 0.00 0.00 0.00 75 1016.9
20200229023617 17 247 3.2 3.2 0.00 0.00 0.00 74 1017.0
20200229022617 17 0.0 0.0 0.00 0.00 0.00 72 1016.8
20200229021618 17 247 1.6 1.6 0.00 0.00 0.00 73 1016.9
20200229020617 17 0.0 0.0 0.00 0.00 0.00 71 1016.8
20200229015618 17 0.0 0.0 0.00 0.00 0.00 71 1016.6
20200229014618 17 0.0 0.0 0.00 0.00 0.00 71 1016.6
20200229012627 18 0.0 1.6 0.00 0.00 0.00 72 1016.7
20200229011618 18 247 3.2 3.2 0.00 0.00 0.00 72 1016.6
20200229010618 18 247 3.2 4.8 0.00 0.00 0.00 70 1016.8
20200229005617 19 247 4.8 6.4 0.00 0.00 0.00 70 1016.8
20200229004622 20 270 4.8 9.7 0.00 0.00 0.00 70 1016.7
20200229003617 21 247 8.0 11.3 0.00 0.00 0.00 65 1016.6
20200229002617 21 270 6.4 11.3 0.00 0.00 0.00 64 1016.6
20200229001617 21 247 9.7 12.9 0.00 0.00 0.00 65 1016.6
20200229000620 22 247 9.7 12.9 0.00 0.00 0.00 59 1016.6
20200228235624 23 270 11.3 16.1 0.00 0.00 0.00 54 1016.7
20200228234617 23 247 11.3 14.5 0.00 0.00 0.00 57 1016.6
20200228233617 23 270 14.5 19.3 0.00 0.00 0.00 50 1016.8
20200228232617 23 270 16.1 25.7 0.00 0.00 0.00 45 1016.8
20200228231616 25 270 12.9 17.7 0.00 0.00 0.00 43 1016.7
20200228230616 25 270 14.5 19.3 0.00 0.00 0.00 41 1016.7
20200228225616 26 270 12.9 17.7 0.00 0.00 0.00 42 1016.5
20200228224616 26 270 16.1 24.1 0.00 0.00 0.00 43 1016.4
20200228223616 27 270 17.7 20.9 0.00 0.00 0.00 47 1016.3
20200228222617 28 270 14.5 20.9 0.00 0.00 0.00 46 1016.2
20200228221616 28 225 8.0 9.7 0.00 0.00 0.00 39 1016.4
20200228220617 28 225 6.4 9.7 0.00 0.00 0.00 44 1016.3
20200228215616 28 225 9.7 12.9 0.00 0.00 0.00 42 1016.0
20200228214617 27 225 8.0 11.3 0.00 0.00 0.00 44 1016.0
20200228213616 27 225 8.0 9.7 0.00 0.00 0.00 37 1016.1
20200228212617 27 202 6.4 8.0 0.00 0.00 0.00 39 1016.0
20200228211616 27 225 4.8 8.0 0.00 0.00 0.00 40 1016.2
20200228210616 27 202 8.0 11.3 0.00 0.00 0.00 46 1016.4
20200228205616 27 202 6.4 8.0 0.00 0.00 0.00 43 1016.4
20200228204616 27 225 4.8 6.4 0.00 0.00 0.00 47 1016.6
20200228203616 26 225 3.2 6.4 0.00 0.00 0.00 44 1016.6
20200228202616 26 225 4.8 6.4 0.00 0.00 0.00 45 1016.8
20200228201616 26 202 6.4 8.0 0.00 0.00 0.00 49 1016.9
20200228200616 26 225 3.2 6.4 0.00 0.00 0.00 52 1017.1
20200228195616 26 270 6.4 9.7 0.00 0.00 0.00 49 1017.4
20200228194616 25 180 3.2 8.0 0.00 0.00 0.00 48 1017.6
20200228193616 25 247 3.2 4.8 0.00 0.00 0.00 47 1017.7
20200228192616 25 247 4.8 6.4 0.00 0.00 0.00 50 1017.8
20200228191616 25 202 3.2 8.0 0.00 0.00 0.00 50 1018.0
20200228190616 23 270 3.2 4.8 0.00 0.00 0.00 52 1018.3
20200228185616 23 292 3.2 4.8 0.00 0.00 0.00 55 1018.7
20200228184616 22 270 3.2 4.8 0.00 0.00 0.00 58 1018.8
20200228183616 22 247 4.8 6.4 0.00 0.00 0.00 59 1018.9
20200228182616 22 225 6.4 9.7 0.00 0.00 0.00 65 1019.1
20200228181616 21 247 3.2 4.8 0.00 0.00 0.00 64 1019.2
20200228180616 21 202 3.2 4.8 0.00 0.00 0.00 64 1019.2
20200228175616 21 202 3.2 4.8 0.00 0.00 0.00 66 1019.1
20200228174616 20 247 3.2 4.8 0.00 0.00 0.00 68 1019.3
20200228173616 20 225 1.6 3.2 0.00 0.00 0.00 70 1019.3
20200228172616 20 202 1.6 3.2 0.00 0.00 0.00 71 1019.1
20200228171616 18 247 1.6 3.2 0.00 0.00 0.00 72 1019.1
20200228170616 18 270 1.6 3.2 0.00 0.00 0.00 74 1019.2
20200228165616 18 292 3.2 3.2 0.00 0.00 0.00 73 1019.1
20200228164616 18 292 1.6 3.2 0.00 0.00 0.00 74 1019.2
20200228163616 18 315 1.6 1.6 0.00 0.00 0.00 69 1019.2
20200228162616 18 315 1.6 3.2 0.00 0.00 0.00 72 1019.3
20200228161616 17 337 3.2 4.8 0.00 0.00 0.00 75 1019.1
20200228160615 16 315 3.2 4.8 0.00 0.00 0.00 79 1019.0
20200228155616 15 315 3.2 4.8 0.00 0.00 0.00 83 1018.9
20200228154616 15 315 1.6 3.2 0.00 0.00 0.00 84 1018.9
20200228153615 13 292 1.6 1.6 0.00 0.00 0.00 86 1018.9
20200228152616 13 292 1.6 3.2 0.00 0.00 0.00 89 1018.8
20200228151616 12 292 1.6 3.2 0.00 0.00 0.00 91 1018.7
20200228150616 11 0 1.6 1.6 0.00 0.00 0.00 92 1018.6
20200228145616 10 22 1.6 3.2 0.00 0.00 0.00 91 1018.4
20200228144615 9 0.0 0.0 0.00 0.00 0.00 92 1018.2
20200228143616 9 45 1.6 1.6 0.00 0.00 0.00 91 1018.2
20200228142616 9 0.0 0.0 0.00 0.00 0.00 92 1018.0
20200228141615 8 0.0 1.6 0.00 0.00 0.00 93 1017.9
20200228140615 8 45 1.6 1.6 0.00 0.00 0.00 92 1017.7
20200228135617 8 45 1.6 3.2 0.00 0.00 0.00 93 1017.5
20200228134615 7 45 1.6 3.2 0.00 0.00 0.00 92 1017.6
20200228133616 8 45 1.6 3.2 0.00 0.00 0.00 93 1017.6
20200228132615 7 45 1.6 3.2 0.00 0.00 0.00 93 1017.5
20200228131615 7 22 1.6 3.2 0.00 0.00 0.00 91 1017.6
20200228130616 7 22 3.2 3.2 0.00 0.00 0.00 91 1017.8
20200228125615 7 22 3.2 3.2 0.00 0.00 0.00 91 1017.8
20200228124616 7 22 3.2 4.8 0.00 0.00 0.00 92 1017.8
20200228123616 7 22 3.2 4.8 0.00 0.00 0.00 92 1017.8
20200228122615 7 22 1.6 1.6 0.00 0.00 0.00 92 1017.7
20200228121615 7 0.0 1.6 0.00 0.00 0.00 91 1017.6
20200228120615 7 22 3.2 3.2 0.00 0.00 0.00 91 1017.2
20200228115615 8 22 3.2 4.8 0.00 0.00 0.00 91 1017.2
20200228112615 8 67 1.6 1.6 0.00 0.00 0.00 91 1017.1
20200228111618 8 67 1.6 3.2 0.00 0.00 0.00 92 1017.0
20200228105617 8 67 3.2 3.2 0.00 0.00 0.00 90 1016.9
20200228104617 8 67 3.2 4.8 0.00 0.00 0.00 90 1016.9
20200228103617 9 67 3.2 4.8 0.00 0.00 0.00 90 1016.8
20200228102617 9 67 1.6 3.2 0.00 0.00 0.00 89 1016.8
20200228101617 9 67 1.6 1.6 0.00 0.00 0.00 89 1016.9
20200228100617 10 67 3.2 3.2 0.00 0.00 0.00 88 1017.0
20200228095617 10 67 3.2 4.8 0.00 0.00 0.00 87 1016.9
20200228094617 10 180 1.6 1.6 0.00 0.00 0.00 88 1016.8
20200228093617 10 180 1.6 1.6 0.00 0.00 0.00 89 1016.9
20200228092617 10 180 1.6 3.2 0.00 0.00 0.00 88 1017.1
20200228091617 10 0.0 1.6 0.00 0.00 0.00 88 1017.2
20200228090617 10 0.0 1.6 0.00 0.00 0.00 88 1017.2
20200228085617 10 0.0 1.6 0.00 0.00 0.00 87 1017.2
20200228084617 11 180 1.6 3.2 0.00 0.00 0.00 88 1017.4
20200228083617 11 180 4.8 4.8 0.00 0.00 0.00 88 1017.6
20200228082618 11 180 3.2 6.4 0.00 0.00 0.00 88 1017.7
20200228081616 10 180 3.2 4.8 0.00 0.00 0.00 88 1017.8
20200228080617 11 90 3.2 3.2 0.00 0.00 0.00 87 1017.7
20200228075619 11 90 1.6 3.2 0.00 0.00 0.00 86 1017.6
20200228074617 11 90 1.6 3.2 0.00 0.00 0.00 86 1017.5
20200228073617 11 90 1.6 1.6 0.00 0.00 0.00 85 1017.5
20200228072617 11 0.0 0.0 0.00 0.00 0.00 83 1017.8
20200228071617 11 0.0 0.0 0.00 0.00 0.00 84 1017.7
20200228070622 12 0.0 0.0 0.00 0.00 0.00 85 1017.6
20200228065615 12 0.0 0.0 0.00 0.00 0.00 86 1017.5